ESB weather

Esenbo─ča International Airport
Ankara, Ankara Province, Turkey

Public forecast

Using degrees Celsius for public forecast. Weather courtesy of forecast.io.

METAR (pilot weather report)

Retrieved 2019/03/25 05:20 UTC (28 minutes ago):

LTAC 250520Z 35008KT 9999 FEW040 M01/M06 Q1014 NOSIG RMK RWY21L 35007KT RWY03L 35006KT RWY21R 35006KT

TAF (pilot weather forecast)

Forecast is more than 12 hours old.

Retrieved 2019/03/21 18:01 UTC (3 days ago):

TAF LTAC 211640Z 2118/2218 VRB02KT CAVOK BECMG 2122/2201 4000 BR SCT040 PROB30 TEMPO 2203/2206 1400 BCFG BKN009 BECMG 2206/2208 9999 NSW BECMG 2215/2218 CAVOK